sensor_id;sensor_type;location;lat;lon;timestamp;pressure;altitude;pressure_sealevel;temperature;humidity
11672;BME280;5892;43.412;24.612;2023-07-13T00:01:35;99861.59;;;26.61;84.99
11672;BME280;5892;43.412;24.612;2023-07-13T00:04:04;99866.50;;;26.56;85.09
11672;BME280;5892;43.412;24.612;2023-07-13T00:06:31;99876.81;;;26.63;85.45
11672;BME280;5892;43.412;24.612;2023-07-13T00:08:58;99872.81;;;26.61;85.25
11672;BME280;5892;43.412;24.612;2023-07-13T00:11:27;99852.22;;;26.47;84.84
11672;BME280;5892;43.412;24.612;2023-07-13T00:13:53;99871.72;;;26.54;85.60
11672;BME280;5892;43.412;24.612;2023-07-13T00:16:20;99863.56;;;26.40;86.51
11672;BME280;5892;43.412;24.612;2023-07-13T00:18:47;99875.53;;;26.44;86.68
11672;BME280;5892;43.412;24.612;2023-07-13T00:21:14;99859.72;;;26.31;87.41
11672;BME280;5892;43.412;24.612;2023-07-13T00:23:42;99873.34;;;26.32;87.59
11672;BME280;5892;43.412;24.612;2023-07-13T00:26:10;99866.94;;;26.32;87.48
11672;BME280;5892;43.412;24.612;2023-07-13T00:28:40;99868.03;;;26.38;87.29
11672;BME280;5892;43.412;24.612;2023-07-13T00:31:08;99862.88;;;26.33;87.83
11672;BME280;5892;43.412;24.612;2023-07-13T00:33:35;99858.69;;;26.44;86.97
11672;BME280;5892;43.412;24.612;2023-07-13T00:36:03;99847.44;;;26.44;86.29
11672;BME280;5892;43.412;24.612;2023-07-13T00:38:30;99853.84;;;26.45;86.88
11672;BME280;5892;43.412;24.612;2023-07-13T00:40:57;99851.41;;;26.47;86.92
11672;BME280;5892;43.412;24.612;2023-07-13T00:43:27;99844.94;;;26.50;86.60
11672;BME280;5892;43.412;24.612;2023-07-13T00:46:21;99837.47;;;26.63;84.93
11672;BME280;5892;43.412;24.612;2023-07-13T00:48:49;99837.03;;;26.65;84.92
11672;BME280;5892;43.412;24.612;2023-07-13T00:51:21;99834.34;;;26.58;85.66
11672;BME280;5892;43.412;24.612;2023-07-13T00:53:52;99827.28;;;26.49;85.93
11672;BME280;5892;43.412;24.612;2023-07-13T00:56:19;99838.00;;;26.54;86.00
11672;BME280;5892;43.412;24.612;2023-07-13T00:58:46;99841.81;;;26.44;86.51
11672;BME280;5892;43.412;24.612;2023-07-13T01:01:13;99838.28;;;26.40;86.95
11672;BME280;5892;43.412;24.612;2023-07-13T01:03:41;99829.84;;;26.40;86.37
11672;BME280;5892;43.412;24.612;2023-07-13T01:06:08;99793.97;;;26.05;87.32
11672;BME280;5892;43.412;24.612;2023-07-13T01:08:35;99832.56;;;26.24;87.45
11672;BME280;5892;43.412;24.612;2023-07-13T01:11:02;99835.97;;;26.35;87.43
11672;BME280;5892;43.412;24.612;2023-07-13T01:13:29;99841.97;;;26.37;86.96
11672;BME280;5892;43.412;24.612;2023-07-13T01:15:58;99836.97;;;26.25;87.75
11672;BME280;5892;43.412;24.612;2023-07-13T01:18:29;99838.97;;;26.25;87.65
11672;BME280;5892;43.412;24.612;2023-07-13T01:20:59;99841.56;;;26.12;88.88
11672;BME280;5892;43.412;24.612;2023-07-13T01:23:26;99845.66;;;26.07;88.89
11672;BME280;5892;43.412;24.612;2023-07-13T01:25:54;99816.28;;;25.89;89.11
11672;BME280;5892;43.412;24.612;2023-07-13T01:28:22;99828.13;;;26.00;88.39
11672;BME280;5892;43.412;24.612;2023-07-13T01:30:53;99828.25;;;25.93;89.35
11672;BME280;5892;43.412;24.612;2023-07-13T01:33:20;99826.72;;;25.88;89.68
11672;BME280;5892;43.412;24.612;2023-07-13T01:35:47;99823.59;;;25.83;89.71
11672;BME280;5892;43.412;24.612;2023-07-13T01:38:17;99837.38;;;25.73;90.81
11672;BME280;5892;43.412;24.612;2023-07-13T01:40:45;99837.00;;;25.71;90.91
11672;BME280;5892;43.412;24.612;2023-07-13T01:43:12;99840.94;;;25.78;90.10
11672;BME280;5892;43.412;24.612;2023-07-13T01:45:39;99836.09;;;25.78;90.17
11672;BME280;5892;43.412;24.612;2023-07-13T01:48:06;99845.31;;;25.79;89.97
11672;BME280;5892;43.412;24.612;2023-07-13T01:50:33;99817.94;;;25.59;90.74
11672;BME280;5892;43.412;24.612;2023-07-13T01:53:00;99831.28;;;25.79;89.76
11672;BME280;5892;43.412;24.612;2023-07-13T01:55:29;99830.31;;;25.89;89.61
11672;BME280;5892;43.412;24.612;2023-07-13T01:57:56;99829.22;;;25.83;89.92
11672;BME280;5892;43.412;24.612;2023-07-13T02:00:23;99831.81;;;25.70;90.59
11672;BME280;5892;43.412;24.612;2023-07-13T02:02:51;99836.94;;;25.75;89.89
11672;BME280;5892;43.412;24.612;2023-07-13T02:05:18;99844.28;;;25.69;89.74
11672;BME280;5892;43.412;24.612;2023-07-13T02:07:45;99850.78;;;25.62;90.49
11672;BME280;5892;43.412;24.612;2023-07-13T02:10:12;99857.06;;;25.70;89.81
11672;BME280;5892;43.412;24.612;2023-07-13T02:12:41;99840.28;;;25.66;89.63
11672;BME280;5892;43.412;24.612;2023-07-13T02:15:09;99839.63;;;25.59;90.30
11672;BME280;5892;43.412;24.612;2023-07-13T02:17:36;99829.34;;;25.45;90.39
11672;BME280;5892;43.412;24.612;2023-07-13T02:20:04;99847.19;;;25.62;89.92
11672;BME280;5892;43.412;24.612;2023-07-13T02:22:31;99824.00;;;25.54;89.51
11672;BME280;5892;43.412;24.612;2023-07-13T02:24:58;99854.78;;;25.61;89.64
11672;BME280;5892;43.412;24.612;2023-07-13T02:27:25;99857.59;;;25.61;89.68
11672;BME280;5892;43.412;24.612;2023-07-13T02:29:53;99854.84;;;25.54;89.82
11672;BME280;5892;43.412;24.612;2023-07-13T02:32:20;99859.69;;;25.54;89.93
11672;BME280;5892;43.412;24.612;2023-07-13T02:34:47;99865.03;;;25.45;90.56
11672;BME280;5892;43.412;24.612;2023-07-13T02:37:14;99857.53;;;25.38;90.85
11672;BME280;5892;43.412;24.612;2023-07-13T02:39:41;99862.69;;;25.40;90.18
11672;BME280;5892;43.412;24.612;2023-07-13T02:42:08;99842.63;;;25.41;89.55
11672;BME280;5892;43.412;24.612;2023-07-13T02:44:35;99857.78;;;25.47;89.70
11672;BME280;5892;43.412;24.612;2023-07-13T02:47:03;99864.50;;;25.57;90.53
11672;BME280;5892;43.412;24.612;2023-07-13T02:49:30;99864.75;;;25.66;90.30
11672;BME280;5892;43.412;24.612;2023-07-13T02:51:57;99857.59;;;25.61;90.01
11672;BME280;5892;43.412;24.612;2023-07-13T02:54:26;99862.00;;;25.62;90.25
11672;BME280;5892;43.412;24.612;2023-07-13T02:56:53;99859.94;;;25.66;89.56
11672;BME280;5892;43.412;24.612;2023-07-13T02:59:19;99855.53;;;25.65;89.05
11672;BME280;5892;43.412;24.612;2023-07-13T03:01:46;99856.28;;;25.69;88.75
11672;BME280;5892;43.412;24.612;2023-07-13T03:04:15;99844.38;;;25.62;88.06
11672;BME280;5892;43.412;24.612;2023-07-13T03:06:45;99862.25;;;25.71;87.25
11672;BME280;5892;43.412;24.612;2023-07-13T03:09:12;99861.31;;;25.82;86.48
11672;BME280;5892;43.412;24.612;2023-07-13T03:11:39;99857.22;;;25.86;87.66
11672;BME280;5892;43.412;24.612;2023-07-13T03:14:07;99857.22;;;25.86;88.20
11672;BME280;5892;43.412;24.612;2023-07-13T03:16:34;99855.59;;;25.89;88.31
11672;BME280;5892;43.412;24.612;2023-07-13T03:19:01;99858.56;;;26.01;87.98
11672;BME280;5892;43.412;24.612;2023-07-13T03:21:30;99854.06;;;26.07;87.49
11672;BME280;5892;43.412;24.612;2023-07-13T03:23:57;99853.81;;;26.25;85.96
11672;BME280;5892;43.412;24.612;2023-07-13T03:26:23;99868.31;;;26.43;85.26
11672;BME280;5892;43.412;24.612;2023-07-13T03:28:50;99867.63;;;26.59;84.02
11672;BME280;5892;43.412;24.612;2023-07-13T03:31:19;99875.41;;;26.51;82.07
11672;BME280;5892;43.412;24.612;2023-07-13T03:33:46;99860.31;;;26.19;83.89
11672;BME280;5892;43.412;24.612;2023-07-13T03:36:16;99861.16;;;26.15;84.53
11672;BME280;5892;43.412;24.612;2023-07-13T03:38:46;99852.13;;;26.04;83.98
11672;BME280;5892;43.412;24.612;2023-07-13T03:41:14;99872.66;;;26.25;84.32
11672;BME280;5892;43.412;24.612;2023-07-13T03:43:41;99890.13;;;27.02;80.34
11672;BME280;5892;43.412;24.612;2023-07-13T03:46:08;99898.84;;;27.67;77.42
11672;BME280;5892;43.412;24.612;2023-07-13T03:48:35;99880.16;;;28.09;75.91
11672;BME280;5892;43.412;24.612;2023-07-13T03:51:02;99881.84;;;28.39;74.83
11672;BME280;5892;43.412;24.612;2023-07-13T03:53:29;99886.47;;;28.78;72.29
11672;BME280;5892;43.412;24.612;2023-07-13T03:55:57;99882.53;;;29.17;69.76
11672;BME280;5892;43.412;24.612;2023-07-13T03:58:31;99876.31;;;29.63;66.25
11672;BME280;5892;43.412;24.612;2023-07-13T04:00:59;99884.25;;;30.06;64.88
11672;BME280;5892;43.412;24.612;2023-07-13T04:03:32;99882.75;;;30.27;64.48
11672;BME280;5892;43.412;24.612;2023-07-13T04:05:59;99886.03;;;30.72;63.33
11672;BME280;5892;43.412;24.612;2023-07-13T04:08:27;99859.00;;;30.37;63.96
11672;BME280;5892;43.412;24.612;2023-07-13T04:10:54;99893.06;;;30.68;63.79
11672;BME280;5892;43.412;24.612;2023-07-13T04:13:23;99886.25;;;31.34;58.70
11672;BME280;5892;43.412;24.612;2023-07-13T04:15:50;99886.66;;;31.54;57.66
11672;BME280;5892;43.412;24.612;2023-07-13T04:18:18;99883.72;;;31.36;56.97
11672;BME280;5892;43.412;24.612;2023-07-13T04:20:45;99893.41;;;31.48;56.19
11672;BME280;5892;43.412;24.612;2023-07-13T04:23:12;99893.41;;;31.79;54.69
11672;BME280;5892;43.412;24.612;2023-07-13T04:25:39;99902.94;;;31.94;53.30
11672;BME280;5892;43.412;24.612;2023-07-13T04:28:06;99902.66;;;32.10;53.09
11672;BME280;5892;43.412;24.612;2023-07-13T04:30:34;99910.97;;;31.95;53.60
11672;BME280;5892;43.412;24.612;2023-07-13T04:33:01;99898.56;;;32.02;53.81
11672;BME280;5892;43.412;24.612;2023-07-13T04:35:28;99904.66;;;32.31;53.82
11672;BME280;5892;43.412;24.612;2023-07-13T04:37:55;99908.91;;;32.36;53.96
11672;BME280;5892;43.412;24.612;2023-07-13T04:40:22;99904.66;;;32.41;53.97
11672;BME280;5892;43.412;24.612;2023-07-13T04:42:49;99916.00;;;32.41;54.39
11672;BME280;5892;43.412;24.612;2023-07-13T04:45:16;99913.56;;;32.79;53.51
11672;BME280;5892;43.412;24.612;2023-07-13T04:47:44;99911.78;;;32.54;53.64
11672;BME280;5892;43.412;24.612;2023-07-13T04:50:14;99895.53;;;32.46;54.11
11672;BME280;5892;43.412;24.612;2023-07-13T04:52:45;99914.53;;;32.76;54.40
11672;BME280;5892;43.412;24.612;2023-07-13T04:55:12;99909.97;;;32.69;53.80
11672;BME280;5892;43.412;24.612;2023-07-13T04:57:39;99910.44;;;32.86;52.70
11672;BME280;5892;43.412;24.612;2023-07-13T05:00:07;99909.31;;;32.84;52.57
11672;BME280;5892;43.412;24.612;2023-07-13T05:02:34;99908.22;;;32.81;52.65
11672;BME280;5892;43.412;24.612;2023-07-13T05:05:03;99906.31;;;32.87;52.63
11672;BME280;5892;43.412;24.612;2023-07-13T05:07:30;99906.50;;;32.74;52.74
11672;BME280;5892;43.412;24.612;2023-07-13T05:09:58;99917.66;;;32.87;52.69
11672;BME280;5892;43.412;24.612;2023-07-13T05:12:25;99910.41;;;32.77;52.77
11672;BME280;5892;43.412;24.612;2023-07-13T05:14:52;99911.00;;;32.63;53.03
11672;BME280;5892;43.412;24.612;2023-07-13T05:17:19;99905.34;;;32.63;53.20
11672;BME280;5892;43.412;24.612;2023-07-13T05:19:47;99906.00;;;32.67;53.05
11672;BME280;5892;43.412;24.612;2023-07-13T05:22:15;99908.38;;;32.68;52.78
11672;BME280;5892;43.412;24.612;2023-07-13T05:24:42;99914.06;;;32.87;52.14
11672;BME280;5892;43.412;24.612;2023-07-13T05:27:09;99914.69;;;32.91;51.20
11672;BME280;5892;43.412;24.612;2023-07-13T05:29:36;99910.13;;;33.20;50.44
11672;BME280;5892;43.412;24.612;2023-07-13T05:32:04;99913.28;;;33.23;50.69
11672;BME280;5892;43.412;24.612;2023-07-13T05:34:31;99914.53;;;33.31;49.97
11672;BME280;5892;43.412;24.612;2023-07-13T05:36:57;99920.97;;;33.49;49.17
11672;BME280;5892;43.412;24.612;2023-07-13T05:39:26;99912.91;;;33.57;49.02
11672;BME280;5892;43.412;24.612;2023-07-13T05:41:53;99925.66;;;33.61;48.51
11672;BME280;5892;43.412;24.612;2023-07-13T05:44:19;99922.75;;;33.89;47.94
11672;BME280;5892;43.412;24.612;2023-07-13T05:46:46;99932.50;;;33.97;47.87
11672;BME280;5892;43.412;24.612;2023-07-13T05:49:13;99925.66;;;34.13;47.49
11672;BME280;5892;43.412;24.612;2023-07-13T05:51:41;99937.09;;;34.36;47.18
11672;BME280;5892;43.412;24.612;2023-07-13T05:54:07;99938.09;;;34.81;45.33
11672;BME280;5892;43.412;24.612;2023-07-13T05:56:38;99941.44;;;34.79;45.97
11672;BME280;5892;43.412;24.612;2023-07-13T05:59:05;99951.28;;;34.93;45.58
11672;BME280;5892;43.412;24.612;2023-07-13T06:01:32;99941.47;;;35.18;45.00
11672;BME280;5892;43.412;24.612;2023-07-13T06:03:58;99948.84;;;35.39;40.65
11672;BME280;5892;43.412;24.612;2023-07-13T06:06:25;99949.84;;;35.65;37.95
11672;BME280;5892;43.412;24.612;2023-07-13T06:08:52;99950.44;;;35.55;37.79
11672;BME280;5892;43.412;24.612;2023-07-13T06:11:21;99950.66;;;35.81;36.13
11672;BME280;5892;43.412;24.612;2023-07-13T06:13:50;99950.84;;;35.92;35.24
11672;BME280;5892;43.412;24.612;2023-07-13T06:16:17;99947.28;;;35.97;35.39
11672;BME280;5892;43.412;24.612;2023-07-13T06:18:46;99950.84;;;36.21;35.54
11672;BME280;5892;43.412;24.612;2023-07-13T06:21:14;99963.34;;;36.44;35.66
11672;BME280;5892;43.412;24.612;2023-07-13T06:23:42;99961.41;;;36.35;34.74
11672;BME280;5892;43.412;24.612;2023-07-13T06:26:10;99957.00;;;36.34;35.21
11672;BME280;5892;43.412;24.612;2023-07-13T06:28:37;99957.69;;;36.64;34.45
11672;BME280;5892;43.412;24.612;2023-07-13T06:31:07;99959.56;;;36.67;34.02
11672;BME280;5892;43.412;24.612;2023-07-13T06:33:34;99969.34;;;36.81;34.85
11672;BME280;5892;43.412;24.612;2023-07-13T06:36:03;99960.06;;;36.86;34.59
11672;BME280;5892;43.412;24.612;2023-07-13T06:38:30;99968.91;;;36.88;33.70
11672;BME280;5892;43.412;24.612;2023-07-13T06:40:57;99963.94;;;36.63;34.89
11672;BME280;5892;43.412;24.612;2023-07-13T06:43:24;99949.22;;;36.90;34.27
11672;BME280;5892;43.412;24.612;2023-07-13T06:45:53;99961.16;;;37.09;34.56
11672;BME280;5892;43.412;24.612;2023-07-13T06:48:22;99953.56;;;37.06;33.77
11672;BME280;5892;43.412;24.612;2023-07-13T06:50:50;99949.13;;;37.25;34.01
11672;BME280;5892;43.412;24.612;2023-07-13T06:53:19;99951.09;;;37.39;34.08
11672;BME280;5892;43.412;24.612;2023-07-13T06:55:46;99941.00;;;37.44;34.85
11672;BME280;5892;43.412;24.612;2023-07-13T06:58:15;99939.28;;;37.52;34.66
11672;BME280;5892;43.412;24.612;2023-07-13T07:00:42;99930.34;;;37.44;33.31
11672;BME280;5892;43.412;24.612;2023-07-13T07:03:09;99945.88;;;37.58;33.62
11672;BME280;5892;43.412;24.612;2023-07-13T07:05:38;99953.09;;;37.85;33.48
11672;BME280;5892;43.412;24.612;2023-07-13T07:08:05;99938.84;;;37.90;31.71
11672;BME280;5892;43.412;24.612;2023-07-13T07:10:33;99950.72;;;37.78;31.82
11672;BME280;5892;43.412;24.612;2023-07-13T07:13:01;99936.72;;;37.85;32.42
11672;BME280;5892;43.412;24.612;2023-07-13T07:15:28;99941.34;;;37.77;31.68
11672;BME280;5892;43.412;24.612;2023-07-13T07:17:55;99933.41;;;37.92;31.77
11672;BME280;5892;43.412;24.612;2023-07-13T07:20:22;99929.22;;;38.19;30.01
11672;BME280;5892;43.412;24.612;2023-07-13T07:22:50;99936.41;;;38.03;30.21
11672;BME280;5892;43.412;24.612;2023-07-13T07:25:18;99947.09;;;38.08;30.74
11672;BME280;5892;43.412;24.612;2023-07-13T07:27:45;99943.22;;;38.11;30.47
11672;BME280;5892;43.412;24.612;2023-07-13T07:30:12;99937.97;;;38.04;30.27
11672;BME280;5892;43.412;24.612;2023-07-13T07:32:40;99940.44;;;38.23;31.04
11672;BME280;5892;43.412;24.612;2023-07-13T07:35:08;99937.31;;;37.95;30.45
11672;BME280;5892;43.412;24.612;2023-07-13T07:37:35;99932.50;;;38.06;29.90
11672;BME280;5892;43.412;24.612;2023-07-13T07:40:04;99926.13;;;37.91;30.74
11672;BME280;5892;43.412;24.612;2023-07-13T07:42:31;99904.97;;;37.78;30.91
11672;BME280;5892;43.412;24.612;2023-07-13T07:44:57;99930.97;;;38.11;30.58
11672;BME280;5892;43.412;24.612;2023-07-13T07:47:26;99924.22;;;38.45;30.09
11672;BME280;5892;43.412;24.612;2023-07-13T07:49:53;99927.44;;;38.27;30.11
11672;BME280;5892;43.412;24.612;2023-07-13T07:52:19;99929.09;;;38.39;29.60
11672;BME280;5892;43.412;24.612;2023-07-13T07:54:47;99934.56;;;38.43;29.71
11672;BME280;5892;43.412;24.612;2023-07-13T07:57:15;99927.28;;;38.42;30.48
11672;BME280;5892;43.412;24.612;2023-07-13T07:59:42;99938.09;;;38.64;30.21
11672;BME280;5892;43.412;24.612;2023-07-13T08:02:10;99934.25;;;38.72;30.38
11672;BME280;5892;43.412;24.612;2023-07-13T08:04:37;99926.19;;;38.76;31.46
11672;BME280;5892;43.412;24.612;2023-07-13T08:07:05;99936.34;;;38.77;31.13
11672;BME280;5892;43.412;24.612;2023-07-13T08:09:32;99929.03;;;38.76;30.31
11672;BME280;5892;43.412;24.612;2023-07-13T08:11:59;99915.00;;;38.78;30.48
11672;BME280;5892;43.412;24.612;2023-07-13T08:14:27;99910.28;;;38.75;30.66
11672;BME280;5892;43.412;24.612;2023-07-13T08:16:55;99901.97;;;38.29;31.62
11672;BME280;5892;43.412;24.612;2023-07-13T08:19:22;99906.06;;;38.65;30.88
11672;BME280;5892;43.412;24.612;2023-07-13T08:21:48;99899.88;;;38.72;31.20
11672;BME280;5892;43.412;24.612;2023-07-13T08:24:15;99894.44;;;38.85;30.12
11672;BME280;5892;43.412;24.612;2023-07-13T08:26:44;99896.06;;;38.92;30.57
11672;BME280;5892;43.412;24.612;2023-07-13T08:29:11;99898.66;;;38.90;30.48
11672;BME280;5892;43.412;24.612;2023-07-13T08:31:40;99892.97;;;39.07;29.52
11672;BME280;5892;43.412;24.612;2023-07-13T08:34:06;99893.81;;;39.29;29.03
11672;BME280;5892;43.412;24.612;2023-07-13T08:36:35;99894.09;;;39.54;28.92
11672;BME280;5892;43.412;24.612;2023-07-13T08:39:02;99915.44;;;39.30;28.74
11672;BME280;5892;43.412;24.612;2023-07-13T08:41:29;99908.41;;;39.37;29.73
11672;BME280;5892;43.412;24.612;2023-07-13T08:43:58;99889.69;;;39.36;28.30
11672;BME280;5892;43.412;24.612;2023-07-13T08:46:30;99920.16;;;39.45;28.53
11672;BME280;5892;43.412;24.612;2023-07-13T08:49:02;99926.16;;;39.35;28.34
11672;BME280;5892;43.412;24.612;2023-07-13T08:51:35;99909.75;;;39.58;27.92
11672;BME280;5892;43.412;24.612;2023-07-13T08:54:15;99908.44;;;39.43;28.25
11672;BME280;5892;43.412;24.612;2023-07-13T08:56:44;99924.09;;;39.69;27.66
11672;BME280;5892;43.412;24.612;2023-07-13T08:59:14;99923.31;;;39.69;27.84
11672;BME280;5892;43.412;24.612;2023-07-13T09:01:57;99918.63;;;39.60;27.82
11672;BME280;5892;43.412;24.612;2023-07-13T09:04:32;99926.72;;;39.84;27.63
11672;BME280;5892;43.412;24.612;2023-07-13T09:07:07;99918.91;;;39.90;27.95
11672;BME280;5892;43.412;24.612;2023-07-13T09:09:47;99919.41;;;39.66;28.26
11672;BME280;5892;43.412;24.612;2023-07-13T09:12:22;99917.06;;;39.76;27.93
11672;BME280;5892;43.412;24.612;2023-07-13T09:14:54;99931.88;;;39.52;27.64
11672;BME280;5892;43.412;24.612;2023-07-13T09:17:25;99927.13;;;39.27;27.96
11672;BME280;5892;43.412;24.612;2023-07-13T09:20:00;99929.22;;;39.32;28.90
11672;BME280;5892;43.412;24.612;2023-07-13T09:22:32;99919.91;;;39.59;28.00
11672;BME280;5892;43.412;24.612;2023-07-13T09:25:05;99926.41;;;39.37;28.43
11672;BME280;5892;43.412;24.612;2023-07-13T09:27:36;99930.06;;;39.49;28.32
11672;BME280;5892;43.412;24.612;2023-07-13T09:30:21;99889.41;;;39.45;27.64
11672;BME280;5892;43.412;24.612;2023-07-13T09:32:52;99918.88;;;39.73;27.36
11672;BME280;5892;43.412;24.612;2023-07-13T09:35:23;99919.91;;;39.70;27.73
11672;BME280;5892;43.412;24.612;2023-07-13T09:37:55;99921.22;;;39.36;26.63
11672;BME280;5892;43.412;24.612;2023-07-13T09:40:30;99916.72;;;39.24;27.73
11672;BME280;5892;43.412;24.612;2023-07-13T09:43:02;99917.50;;;39.19;28.07
11672;BME280;5892;43.412;24.612;2023-07-13T09:45:32;99891.72;;;39.30;27.75
11672;BME280;5892;43.412;24.612;2023-07-13T09:48:04;99915.19;;;39.34;27.84
11672;BME280;5892;43.412;24.612;2023-07-13T09:50:32;99919.63;;;39.35;27.07
11672;BME280;5892;43.412;24.612;2023-07-13T09:53:01;99911.56;;;39.39;27.07
11672;BME280;5892;43.412;24.612;2023-07-13T09:55:31;99909.16;;;39.32;27.17
11672;BME280;5892;43.412;24.612;2023-07-13T09:58:03;99906.53;;;39.12;28.34
11672;BME280;5892;43.412;24.612;2023-07-13T10:00:31;99913.81;;;39.13;27.80
11672;BME280;5892;43.412;24.612;2023-07-13T10:03:01;99919.91;;;39.48;28.93
11672;BME280;5892;43.412;24.612;2023-07-13T10:05:37;99917.31;;;39.72;28.90
11672;BME280;5892;43.412;24.612;2023-07-13T10:08:04;99918.13;;;39.78;28.17
11672;BME280;5892;43.412;24.612;2023-07-13T10:10:33;99924.13;;;39.80;27.51
11672;BME280;5892;43.412;24.612;2023-07-13T10:13:01;99913.91;;;39.74;27.79
11672;BME280;5892;43.412;24.612;2023-07-13T10:15:30;99906.38;;;39.65;26.92
11672;BME280;5892;43.412;24.612;2023-07-13T10:17:58;99906.34;;;39.54;27.87
11672;BME280;5892;43.412;24.612;2023-07-13T10:20:26;99904.44;;;39.12;28.54
11672;BME280;5892;43.412;24.612;2023-07-13T10:22:59;99895.31;;;39.03;28.60
11672;BME280;5892;43.412;24.612;2023-07-13T10:25:31;99895.03;;;39.06;28.34
11672;BME280;5892;43.412;24.612;2023-07-13T10:28:02;99886.22;;;39.10;29.00
11672;BME280;5892;43.412;24.612;2023-07-13T10:30:34;99882.16;;;38.74;28.83
11672;BME280;5892;43.412;24.612;2023-07-13T10:33:03;99881.50;;;39.12;28.58
11672;BME280;5892;43.412;24.612;2023-07-13T10:35:35;99874.97;;;39.01;27.29
11672;BME280;5892;43.412;24.612;2023-07-13T10:38:06;99874.50;;;39.19;28.03
11672;BME280;5892;43.412;24.612;2023-07-13T10:40:36;99875.31;;;39.30;28.17
11672;BME280;5892;43.412;24.612;2023-07-13T10:43:10;99855.53;;;39.38;27.58
11672;BME280;5892;43.412;24.612;2023-07-13T10:45:38;99869.34;;;39.78;28.17
11672;BME280;5892;43.412;24.612;2023-07-13T10:48:06;99854.22;;;39.89;27.19
11672;BME280;5892;43.412;24.612;2023-07-13T10:50:38;99860.47;;;39.71;26.93
11672;BME280;5892;43.412;24.612;2023-07-13T10:53:19;99850.78;;;39.13;28.34
11672;BME280;5892;43.412;24.612;2023-07-13T10:56:00;99852.38;;;39.42;28.32
11672;BME280;5892;43.412;24.612;2023-07-13T10:58:33;99843.53;;;39.39;27.87
11672;BME280;5892;43.412;24.612;2023-07-13T11:01:10;99855.81;;;39.57;26.97
11672;BME280;5892;43.412;24.612;2023-07-13T11:03:47;99853.16;;;39.75;27.59
11672;BME280;5892;43.412;24.612;2023-07-13T11:06:17;99841.19;;;39.71;27.12
11672;BME280;5892;43.412;24.612;2023-07-13T11:08:59;99841.19;;;39.83;26.98
11672;BME280;5892;43.412;24.612;2023-07-13T11:11:43;99848.19;;;40.04;26.78
11672;BME280;5892;43.412;24.612;2023-07-13T11:14:29;99836.47;;;40.02;27.27
11672;BME280;5892;43.412;24.612;2023-07-13T11:16:57;99833.31;;;40.00;27.25
11672;BME280;5892;43.412;24.612;2023-07-13T11:19:38;99819.31;;;39.35;27.55
11672;BME280;5892;43.412;24.612;2023-07-13T11:22:23;99817.47;;;39.49;28.35
11672;BME280;5892;43.412;24.612;2023-07-13T11:24:57;99816.69;;;39.65;27.97
11672;BME280;5892;43.412;24.612;2023-07-13T11:27:39;99811.47;;;39.52;28.34
11672;BME280;5892;43.412;24.612;2023-07-13T11:30:18;99808.34;;;39.72;28.11
11672;BME280;5892;43.412;24.612;2023-07-13T11:32:50;99798.88;;;40.00;28.02
11672;BME280;5892;43.412;24.612;2023-07-13T11:35:22;99781.97;;;39.91;27.63
11672;BME280;5892;43.412;24.612;2023-07-13T11:37:49;99800.44;;;40.01;28.00
11672;BME280;5892;43.412;24.612;2023-07-13T11:40:19;99775.22;;;39.88;27.76
11672;BME280;5892;43.412;24.612;2023-07-13T11:42:49;99776.66;;;40.17;27.69
11672;BME280;5892;43.412;24.612;2023-07-13T11:45:20;99774.56;;;40.23;27.46
11672;BME280;5892;43.412;24.612;2023-07-13T11:47:49;99781.66;;;40.05;27.32
11672;BME280;5892;43.412;24.612;2023-07-13T11:50:20;99783.47;;;40.14;25.54
11672;BME280;5892;43.412;24.612;2023-07-13T11:52:48;99760.03;;;39.99;25.41
11672;BME280;5892;43.412;24.612;2023-07-13T11:55:18;99777.97;;;40.16;25.60
11672;BME280;5892;43.412;24.612;2023-07-13T11:57:51;99771.34;;;40.43;24.44
11672;BME280;5892;43.412;24.612;2023-07-13T12:00:22;99754.47;;;40.23;24.69
11672;BME280;5892;43.412;24.612;2023-07-13T12:02:55;99748.44;;;40.32;25.06
11672;BME280;5892;43.412;24.612;2023-07-13T12:05:23;99762.47;;;40.41;25.34
11672;BME280;5892;43.412;24.612;2023-07-13T12:07:50;99772.38;;;40.46;24.86
11672;BME280;5892;43.412;24.612;2023-07-13T12:10:23;99767.47;;;40.41;24.59
11672;BME280;5892;43.412;24.612;2023-07-13T12:12:53;99761.81;;;40.13;24.74
11672;BME280;5892;43.412;24.612;2023-07-13T12:15:20;99756.84;;;40.13;24.74
11672;BME280;5892;43.412;24.612;2023-07-13T12:17:48;99760.50;;;40.19;24.56
11672;BME280;5892;43.412;24.612;2023-07-13T12:20:26;99761.03;;;40.07;25.29
11672;BME280;5892;43.412;24.612;2023-07-13T12:22:53;99762.03;;;40.15;25.58
11672;BME280;5892;43.412;24.612;2023-07-13T12:25:29;99765.19;;;40.17;25.04
11672;BME280;5892;43.412;24.612;2023-07-13T12:27:56;99746.41;;;40.21;24.00
11672;BME280;5892;43.412;24.612;2023-07-13T12:30:26;99739.88;;;40.21;24.85
11672;BME280;5892;43.412;24.612;2023-07-13T12:33:00;99757.00;;;40.43;24.41
11672;BME280;5892;43.412;24.612;2023-07-13T12:35:29;99759.69;;;40.30;23.89
11672;BME280;5892;43.412;24.612;2023-07-13T12:38:00;99754.16;;;40.38;24.88
11672;BME280;5892;43.412;24.612;2023-07-13T12:40:35;99753.38;;;40.37;25.32
11672;BME280;5892;43.412;24.612;2023-07-13T12:43:03;99751.91;;;40.14;25.75
11672;BME280;5892;43.412;24.612;2023-07-13T12:45:32;99743.44;;;40.38;25.58
11672;BME280;5892;43.412;24.612;2023-07-13T12:48:05;99739.50;;;40.41;25.80
11672;BME280;5892;43.412;24.612;2023-07-13T12:50:38;99735.88;;;40.41;26.26
11672;BME280;5892;43.412;24.612;2023-07-13T12:53:12;99738.78;;;40.35;25.70
11672;BME280;5892;43.412;24.612;2023-07-13T12:55:42;99745.59;;;40.27;25.70
11672;BME280;5892;43.412;24.612;2023-07-13T12:58:18;99731.47;;;40.34;24.94
11672;BME280;5892;43.412;24.612;2023-07-13T13:00:49;99731.25;;;40.21;24.64
11672;BME280;5892;43.412;24.612;2023-07-13T13:03:24;99737.41;;;40.42;24.63
11672;BME280;5892;43.412;24.612;2023-07-13T13:05:59;99725.72;;;40.34;24.59
11672;BME280;5892;43.412;24.612;2023-07-13T13:08:30;99735.09;;;40.40;24.86
11672;BME280;5892;43.412;24.612;2023-07-13T13:10:58;99726.47;;;40.40;24.67